Time;durP1;ratioP1;P1;durP2;ratioP2;P2;SDS_P1;SDS_P2;PMS_P1;PMS_P2;Temp;Humidity;BMP_temperature;BMP_pressure;BME280_temperature;BME280_humidity;BME280_pressure;Samples;Min_cycle;Max_cycle;Signal;HPM_P1;HPM_P2
2021/12/10 00:00:47;;;;;;;24.02;4.72;;;;;;;8.04;100.00;98809.59;5054583;28;20053;-50
2021/12/10 00:03:22;;;;;;;35.30;5.88;;;;;;;8.10;100.00;98814.38;5053207;28;20489;-51
2021/12/10 00:05:53;;;;;;;32.20;4.72;;;;;;;8.03;100.00;98807.88;5053303;28;20072;-50
2021/12/10 00:08:23;;;;;;;32.60;4.53;;;;;;;7.99;100.00;98806.47;5056906;28;20057;-52
2021/12/10 00:10:53;;;;;;;41.55;6.03;;;;;;;7.94;100.00;98813.91;5057660;28;20060;-51
2021/12/10 00:13:22;;;;;;;26.63;5.30;;;;;;;7.91;100.00;98819.41;5056807;28;20505;-52
2021/12/10 00:15:54;;;;;;;33.67;4.35;;;;;;;7.91;100.00;98829.97;5057283;28;20439;-52
2021/12/10 00:18:25;;;;;;;36.25;4.32;;;;;;;7.95;99.03;98815.56;5056600;28;20053;-52
2021/12/10 00:20:58;;;;;;;32.33;4.35;;;;;;;7.86;97.99;98832.13;5057941;28;20378;-52
2021/12/10 00:23:29;;;;;;;28.58;3.78;;;;;;;7.78;97.36;98815.09;5056567;28;20060;-52
2021/12/10 00:26:00;;;;;;;35.92;3.70;;;;;;;7.63;98.28;98826.81;5057721;28;20057;-53
2021/12/10 00:28:32;;;;;;;24.27;3.65;;;;;;;7.60;95.25;98832.34;5056530;28;20053;-50
2021/12/10 00:31:16;;;;;;;35.22;4.85;;;;;;;7.56;95.71;98830.88;5057550;28;20064;-52
2021/12/10 00:33:48;;;;;;;25.40;3.33;;;;;;;7.59;93.96;98842.03;5057546;28;20060;-51
2021/12/10 00:36:17;;;;;;;28.83;3.55;;;;;;;7.64;94.67;98865.44;5056709;28;20072;-50
2021/12/10 00:38:45;;;;;;;25.92;4.28;;;;;;;7.62;98.09;98847.09;5056459;28;20061;-51
2021/12/10 00:41:14;;;;;;;20.05;3.05;;;;;;;7.31;96.59;98856.47;5056798;28;20406;-52
2021/12/10 00:43:42;;;;;;;19.60;2.88;;;;;;;7.10;98.09;98866.00;5057147;28;20061;-50
2021/12/10 00:46:12;;;;;;;21.55;2.70;;;;;;;6.90;98.84;98870.94;5056708;28;20049;-52
2021/12/10 00:48:40;;;;;;;22.48;2.95;;;;;;;6.78;99.75;98866.56;5056334;28;20099;-52
2021/12/10 00:51:11;;;;;;;14.88;2.83;;;;;;;6.71;100.00;98874.06;5057181;28;20053;-52
2021/12/10 00:53:39;;;;;;;14.15;2.50;;;;;;;6.66;100.00;98874.41;5056802;28;20060;-52
2021/12/10 00:56:08;;;;;;;15.77;2.13;;;;;;;6.65;100.00;98864.81;5056565;28;20065;-50
2021/12/10 00:58:37;;;;;;;13.10;2.33;;;;;;;6.55;100.00;98873.47;5056803;28;20064;-52
2021/12/10 01:01:11;;;;;;;23.65;2.85;;;;;;;6.51;100.00;98868.44;5055836;28;20060;-50
2021/12/10 01:03:47;;;;;;;14.90;2.20;;;;;;;6.45;100.00;98870.66;5055876;28;20057;-52
2021/12/10 01:06:17;;;;;;;22.73;3.90;;;;;;;6.44;100.00;98880.38;5056927;28;20068;-51
2021/12/10 01:08:48;;;;;;;17.17;3.05;;;;;;;6.40;100.00;98888.59;5056057;28;20053;-53
2021/12/10 01:11:20;;;;;;;23.10;2.90;;;;;;;6.36;100.00;98879.22;5056621;28;20064;-50
2021/12/10 01:13:51;;;;;;;17.73;3.08;;;;;;;6.32;100.00;98897.00;5056264;28;20060;-52
2021/12/10 01:24:53;;;;;;;16.48;3.08;;;;;;;6.36;100.00;98908.19;5022523;28;20057;-52
2021/12/10 01:27:30;;;;;;;23.10;3.00;;;;;;;6.44;100.00;98911.97;5055377;28;20053;-52
2021/12/10 01:30:01;;;;;;;24.42;3.08;;;;;;;6.46;100.00;98925.03;5056777;28;20083;-53
2021/12/10 01:32:32;;;;;;;25.57;2.80;;;;;;;6.58;100.00;98926.78;5056564;28;20057;-51
2021/12/10 01:35:02;;;;;;;12.90;2.83;;;;;;;6.73;100.00;98932.78;5056725;28;20068;-52
2021/12/10 01:37:30;;;;;;;20.17;2.88;;;;;;;6.81;100.00;98932.25;5055149;28;20306;-52
2021/12/10 01:39:59;;;;;;;12.98;2.15;;;;;;;6.77;100.00;98928.13;5055286;28;20052;-52
2021/12/10 01:42:39;;;;;;;21.40;3.40;;;;;;;6.76;97.72;98923.78;5055337;28;20060;-52
2021/12/10 01:45:17;;;;;;;20.73;2.83;;;;;;;6.78;96.80;98935.09;5055097;28;20048;-52
2021/12/10 01:47:48;;;;;;;21.17;2.78;;;;;;;6.86;95.70;98953.84;5055028;28;20061;-52
2021/12/10 01:50:17;;;;;;;17.83;4.10;;;;;;;6.87;97.10;98963.41;5056076;28;20068;-53
2021/12/10 01:52:50;;;;;;;18.10;2.08;;;;;;;6.85;98.99;98966.16;5055441;28;20417;-52
2021/12/10 01:55:20;;;;;;;17.20;2.47;;;;;;;6.80;99.31;98977.97;5054855;28;20064;-51
2021/12/10 01:57:49;;;;;;;15.40;2.50;;;;;;;6.67;99.20;98967.47;5056190;28;20064;-52
2021/12/10 02:00:20;;;;;;;16.23;2.55;;;;;;;6.62;99.62;98978.34;5055097;28;20053;-51
2021/12/10 02:02:50;;;;;;;22.42;3.22;;;;;;;6.58;99.41;98979.50;5054687;28;20064;-52
2021/12/10 02:05:20;;;;;;;17.92;2.45;;;;;;;6.54;99.92;98985.06;5055519;28;20132;-51
2021/12/10 02:07:49;;;;;;;15.90;2.92;;;;;;;6.46;100.00;98972.44;5056025;28;20058;-51
2021/12/10 02:10:21;;;;;;;19.50;2.25;;;;;;;6.40;100.00;98993.94;5055120;28;20068;-53
2021/12/10 02:12:49;;;;;;;17.13;2.38;;;;;;;6.44;100.00;98985.72;5054576;28;20053;-50
2021/12/10 02:15:18;;;;;;;14.90;2.58;;;;;;;6.45;100.00;98989.19;5055062;28;20516;-50
2021/12/10 02:17:48;;;;;;;10.60;2.03;;;;;;;6.48;100.00;98987.19;5055822;28;20489;-52
2021/12/10 02:20:21;;;;;;;9.25;2.17;;;;;;;6.37;100.00;98989.75;5054099;28;20429;-50
2021/12/10 02:22:51;;;;;;;8.57;1.73;;;;;;;6.35;100.00;98988.97;5055792;28;20049;-52
2021/12/10 02:25:23;;;;;;;8.98;1.90;;;;;;;6.27;100.00;98994.78;5055324;28;20064;-52
2021/12/10 02:27:51;;;;;;;15.43;2.05;;;;;;;6.14;100.00;98997.41;5054314;28;20067;-50
2021/12/10 02:30:20;;;;;;;14.43;2.55;;;;;;;6.03;100.00;98991.19;5054572;28;20057;-52
2021/12/10 02:32:48;;;;;;;14.20;2.25;;;;;;;5.89;100.00;98990.28;5054724;28;20057;-52
2021/12/10 02:35:17;;;;;;;17.02;1.83;;;;;;;5.81;100.00;98989.94;5054462;28;20049;-50
2021/12/10 02:37:48;;;;;;;8.60;1.90;;;;;;;5.75;100.00;98990.38;5054346;28;20057;-50
2021/12/10 02:40:22;;;;;;;14.10;2.33;;;;;;;5.74;100.00;98986.03;5054846;28;20067;-52
2021/12/10 02:42:51;;;;;;;22.75;2.42;;;;;;;5.82;100.00;98989.03;5054335;28;20053;-50
2021/12/10 02:45:21;;;;;;;20.40;2.70;;;;;;;5.69;100.00;98988.16;5055200;28;20064;-52
2021/12/10 02:47:51;;;;;;;19.85;2.38;;;;;;;5.64;100.00;99000.75;5054789;28;20064;-52
2021/12/10 02:50:23;;;;;;;21.83;2.15;;;;;;;5.64;100.00;99011.28;5054187;28;20061;-52
2021/12/10 02:52:51;;;;;;;21.17;3.10;;;;;;;5.61;100.00;99022.00;5054211;28;20497;-51
2021/12/10 02:55:22;;;;;;;19.40;2.88;;;;;;;5.66;100.00;99030.44;5055034;28;20053;-52
2021/12/10 02:57:54;;;;;;;22.05;2.55;;;;;;;5.74;100.00;99030.78;5054723;28;20057;-50
2021/12/10 03:00:27;;;;;;;14.25;2.15;;;;;;;5.97;100.00;99031.94;5053751;28;20061;-52
2021/12/10 03:02:56;;;;;;;20.77;2.85;;;;;;;6.06;100.00;99041.84;5054927;28;20459;-51
2021/12/10 03:05:25;;;;;;;14.23;2.35;;;;;;;5.94;100.00;99032.94;5054060;28;20122;-50
2021/12/10 03:07:53;;;;;;;23.73;3.53;;;;;;;5.81;100.00;99039.94;5054260;28;20069;-52
2021/12/10 03:10:26;;;;;;;17.75;2.53;;;;;;;5.73;100.00;99047.50;5054267;28;20063;-51
2021/12/10 03:12:55;;;;;;;17.15;2.72;;;;;;;5.69;100.00;99044.22;5054499;28;20063;-50
2021/12/10 03:15:25;;;;;;;22.10;3.63;;;;;;;5.66;100.00;99054.13;5055053;28;20059;-51
2021/12/10 03:17:54;;;;;;;13.55;2.28;;;;;;;5.67;100.00;99047.91;5053902;28;20061;-51
2021/12/10 03:20:25;;;;;;;17.30;2.22;;;;;;;5.50;100.00;99044.59;5053837;28;20095;-49
2021/12/10 03:22:53;;;;;;;16.65;2.95;;;;;;;5.68;100.00;99052.22;5053602;28;20524;-51
2021/12/10 03:25:23;;;;;;;25.73;2.97;;;;;;;5.69;99.08;99043.41;5054973;28;20057;-48
2021/12/10 03:27:51;;;;;;;19.65;2.40;;;;;;;5.70;99.37;99058.22;5054093;28;20064;-50
2021/12/10 03:30:22;;;;;;;38.03;4.70;;;;;;;5.71;99.37;99062.53;5053776;28;20053;-49
2021/12/10 03:32:51;;;;;;;17.65;2.67;;;;;;;5.85;98.45;99067.78;5053772;28;20053;-51
2021/12/10 03:35:22;;;;;;;15.10;2.00;;;;;;;6.03;95.99;99072.78;5053530;28;20057;-51
2021/12/10 03:37:51;;;;;;;13.23;2.08;;;;;;;6.11;94.64;99073.97;5053499;28;20053;-51
2021/12/10 03:40:19;;;;;;;16.45;2.55;;;;;;;6.07;95.52;99077.75;5054155;28;20065;-51
2021/12/10 03:42:50;;;;;;;15.15;2.83;;;;;;;6.05;95.31;99089.31;5056995;28;20505;-50
2021/12/10 03:45:18;;;;;;;17.50;2.40;;;;;;;6.03;95.78;99091.22;5057880;28;20535;-51
2021/12/10 03:47:47;;;;;;;18.27;2.47;;;;;;;6.05;96.27;99091.94;5057486;28;20412;-51
2021/12/10 03:50:27;;;;;;;20.63;3.05;;;;;;;6.08;97.39;99094.38;5058064;28;20527;-51
2021/12/10 03:52:56;;;;;;;16.63;2.15;;;;;;;6.15;96.53;99093.03;5058368;28;20057;-50
2021/12/10 03:55:24;;;;;;;13.32;2.30;;;;;;;6.15;97.42;99095.66;5057161;28;20071;-51
2021/12/10 03:57:55;;;;;;;20.33;3.38;;;;;;;6.16;96.90;99096.53;5057363;28;20063;-51
2021/12/10 04:00:25;;;;;;;14.82;2.50;;;;;;;6.16;97.12;99107.06;5057768;28;20485;-50
2021/12/10 04:02:54;;;;;;;25.38;3.30;;;;;;;6.03;97.39;99102.56;5057023;28;20061;-49
2021/12/10 04:05:23;;;;;;;19.77;2.45;;;;;;;6.03;97.58;99117.53;5057300;28;20053;-51
2021/12/10 04:07:52;;;;;;;14.65;2.58;;;;;;;6.19;97.56;99149.81;5057474;28;20484;-51
2021/12/10 04:10:21;;;;;;;17.10;2.58;;;;;;;6.41;92.96;99137.88;5057110;28;20053;-48
2021/12/10 04:12:49;;;;;;;23.45;3.13;;;;;;;6.44;92.05;99113.94;5057382;28;20068;-51
2021/12/10 04:15:22;;;;;;;17.63;1.67;;;;;;;6.31;92.08;99106.88;5057892;28;20420;-51
2021/12/10 04:17:52;;;;;;;11.82;2.08;;;;;;;6.17;91.61;99114.84;5057034;28;20061;-51
2021/12/10 04:20:21;;;;;;;16.98;1.90;;;;;;;6.04;90.42;99112.19;5056950;28;20057;-51
2021/12/10 04:22:50;;;;;;;13.27;2.20;;;;;;;5.87;92.37;99117.69;5056872;28;20060;-51
2021/12/10 04:25:20;;;;;;;14.38;2.38;;;;;;;5.65;92.79;99128.72;5056567;28;20060;-51
2021/12/10 04:27:50;;;;;;;15.85;1.88;;;;;;;5.62;93.70;99123.66;5057076;28;20057;-51
2021/12/10 04:30:20;;;;;;;13.05;1.80;;;;;;;5.54;95.10;99135.50;5057098;28;20068;-52
2021/12/10 04:32:48;;;;;;;16.15;2.25;;;;;;;5.52;95.92;99140.00;5057023;28;20064;-51
2021/12/10 04:35:18;;;;;;;18.95;2.90;;;;;;;5.61;96.97;99138.59;5057198;28;20056;-51
2021/12/10 04:37:49;;;;;;;18.50;1.80;;;;;;;5.66;96.82;99146.19;5058306;28;20065;-50
2021/12/10 04:40:21;;;;;;;17.45;2.33;;;;;;;5.71;96.80;99149.38;5057029;28;20053;-51
2021/12/10 04:42:49;;;;;;;9.80;1.75;;;;;;;5.85;95.43;99162.50;5057372;28;20083;-50
2021/12/10 04:45:20;;;;;;;14.43;2.20;;;;;;;5.97;95.43;99157.41;5056485;28;20072;-51
2021/12/10 04:47:49;;;;;;;16.75;1.70;;;;;;;5.93;95.97;99147.06;5056233;28;20500;-50
2021/12/10 04:50:19;;;;;;;10.65;1.60;;;;;;;5.98;95.19;99172.28;5056678;28;20057;-50
2021/12/10 04:52:48;;;;;;;9.80;1.50;;;;;;;5.90;96.50;99181.47;5056813;28;20072;-51
2021/12/10 04:55:17;;;;;;;17.83;2.20;;;;;;;5.72;98.12;99172.13;5056919;28;20076;-51
2021/12/10 04:57:46;;;;;;;7.47;2.53;;;;;;;5.54;100.00;99167.06;5056545;28;20459;-50
2021/12/10 05:00:18;;;;;;;12.65;1.50;;;;;;;5.35;100.00;99169.16;5057219;28;20083;-51
2021/12/10 05:02:48;;;;;;;11.73;1.77;;;;;;;5.31;100.00;99167.66;5056984;28;20065;-51
2021/12/10 05:05:17;;;;;;;5.65;1.20;;;;;;;5.25;100.00;99144.38;5057042;28;20084;-52
2021/12/10 05:07:45;;;;;;;11.57;1.48;;;;;;;5.14;100.00;99171.31;5056350;28;20532;-50
2021/12/10 05:10:15;;;;;;;14.48;2.05;;;;;;;5.13;98.96;99159.97;5056324;28;20053;-51
2021/12/10 05:12:44;;;;;;;18.23;2.00;;;;;;;5.08;99.84;99187.44;5055751;28;20065;-51
2021/12/10 05:15:17;;;;;;;12.32;2.05;;;;;;;5.15;100.00;99210.66;5056353;28;20057;-51
2021/12/10 05:17:49;;;;;;;11.85;1.73;;;;;;;5.19;100.00;99206.06;5056746;28;20057;-51
2021/12/10 05:20:21;;;;;;;10.45;1.55;;;;;;;5.18;100.00;99228.88;5055430;28;20053;-51
2021/12/10 05:22:50;;;;;;;6.47;1.65;;;;;;;5.15;100.00;99226.44;5056564;28;20065;-51
2021/12/10 05:25:18;;;;;;;9.15;1.50;;;;;;;5.10;100.00;99228.50;5056351;28;20419;-51
2021/12/10 05:27:48;;;;;;;14.25;1.88;;;;;;;4.96;100.00;99217.94;5055952;28;20057;-51
2021/12/10 05:30:19;;;;;;;6.25;1.45;;;;;;;4.83;100.00;99226.56;5056158;28;20052;-51
2021/12/10 05:32:49;;;;;;;9.73;1.58;;;;;;;4.80;100.00;99234.63;5056207;28;20069;-51
2021/12/10 05:35:17;;;;;;;6.90;1.30;;;;;;;4.79;100.00;99214.56;5055559;28;20053;-51
2021/12/10 05:37:45;;;;;;;11.02;1.42;;;;;;;4.86;100.00;99219.44;5055742;28;20057;-51
2021/12/10 05:40:15;;;;;;;11.43;1.48;;;;;;;4.87;100.00;99227.22;5055752;28;20135;-51
2021/12/10 05:42:45;;;;;;;11.68;1.58;;;;;;;4.84;100.00;99228.25;5055645;28;20416;-50
2021/12/10 05:45:14;;;;;;;10.65;1.40;;;;;;;4.80;100.00;99244.28;5056146;28;20057;-48
2021/12/10 05:47:42;;;;;;;8.63;1.67;;;;;;;4.73;100.00;99246.44;5055285;28;20057;-49
2021/12/10 05:50:13;;;;;;;8.48;1.35;;;;;;;4.64;100.00;99242.56;5055217;28;20501;-50
2021/12/10 05:52:41;;;;;;;16.95;3.17;;;;;;;4.50;100.00;99249.53;5055196;28;20075;-50
2021/12/10 05:55:10;;;;;;;9.25;1.35;;;;;;;4.40;100.00;99259.69;5055161;28;20416;-49
2021/12/10 05:57:39;;;;;;;10.52;2.20;;;;;;;4.37;100.00;99260.75;5054984;28;20061;-51
2021/12/10 06:00:11;;;;;;;11.43;1.55;;;;;;;4.44;100.00;99269.97;5054933;28;20052;-51
2021/12/10 06:02:41;;;;;;;9.45;1.10;;;;;;;4.32;100.00;99273.28;5054898;28;20504;-51
2021/12/10 06:05:09;;;;;;;13.82;1.85;;;;;;;4.43;100.00;99270.88;5054110;28;20052;-51
2021/12/10 06:07:39;;;;;;;9.25;1.33;;;;;;;4.45;100.00;99268.16;5055676;28;20053;-50
2021/12/10 06:10:10;;;;;;;7.88;1.52;;;;;;;4.57;100.00;99277.13;5056014;28;20063;-51
2021/12/10 06:12:38;;;;;;;16.55;2.72;;;;;;;4.55;100.00;99285.09;5054520;28;20069;-51
2021/12/10 06:15:08;;;;;;;11.52;1.50;;;;;;;4.66;100.00;99292.38;5055612;28;20057;-50
2021/12/10 06:17:36;;;;;;;7.30;1.40;;;;;;;4.76;100.00;99293.53;5054919;28;20069;-51
2021/12/10 06:20:06;;;;;;;10.48;2.22;;;;;;;4.78;100.00;99302.19;5054635;28;20068;-51
2021/12/10 06:22:34;;;;;;;12.23;2.08;;;;;;;4.86;100.00;99319.28;5054881;28;20394;-51
2021/12/10 06:25:05;;;;;;;24.17;3.28;;;;;;;4.92;100.00;99334.69;5055422;28;20068;-50
2021/12/10 06:27:33;;;;;;;22.63;2.40;;;;;;;5.00;100.00;99290.44;5055404;28;20064;-49
2021/12/10 06:30:02;;;;;;;8.70;1.30;;;;;;;5.06;100.00;99286.59;5054473;28;20061;-50
2021/12/10 06:32:30;;;;;;;12.18;1.58;;;;;;;5.09;99.42;99295.13;5054728;28;20057;-48
2021/12/10 06:34:58;;;;;;;10.48;1.35;;;;;;;5.11;99.30;99292.41;5055059;28;20057;-51
2021/12/10 06:37:27;;;;;;;1.50;0.68;;;;;;;5.08;97.16;99306.59;5054636;28;20158;-51
2021/12/10 06:39:55;;;;;;;5.47;0.98;;;;;;;4.92;97.82;99298.75;5052415;28;20057;-50
2021/12/10 06:42:25;;;;;;;5.50;1.02;;;;;;;4.83;97.96;99299.28;5050978;28;20056;-51
2021/12/10 06:45:04;;;;;;;8.57;1.15;;;;;;;4.76;97.15;99285.66;5039094;28;20458;-50
2021/12/10 06:47:32;;;;;;;7.88;1.17;;;;;;;4.93;96.79;99300.44;5034044;28;20141;-51
2021/12/10 06:50:01;;;;;;;12.18;1.23;;;;;;;5.04;95.89;99307.69;5038025;28;20089;-49
2021/12/10 06:52:29;;;;;;;8.35;1.17;;;;;;;5.08;95.86;99314.47;5053972;28;20053;-50
2021/12/10 06:54:57;;;;;;;6.63;1.30;;;;;;;5.17;95.80;99318.34;5040972;28;20060;-51
2021/12/10 06:57:27;;;;;;;8.40;1.25;;;;;;;5.12;95.66;99320.41;5050171;28;20428;-51
2021/12/10 06:59:56;;;;;;;9.05;1.50;;;;;;;5.05;96.46;99329.59;5042838;28;20432;-49
2021/12/10 07:02:24;;;;;;;5.70;1.13;;;;;;;4.95;97.04;99334.53;5039935;28;20069;-50
2021/12/10 07:04:53;;;;;;;7.68;1.20;;;;;;;4.82;97.97;99329.97;5034963;28;20072;-51
2021/12/10 07:07:21;;;;;;;11.73;1.50;;;;;;;4.80;98.75;99321.31;5034347;28;20413;-51
2021/12/10 07:09:49;;;;;;;9.75;1.45;;;;;;;4.76;99.47;99325.06;5037030;28;20065;-51
2021/12/10 07:12:19;;;;;;;19.25;1.50;;;;;;;4.73;99.11;99330.50;5054505;28;20072;-49
2021/12/10 07:14:49;;;;;;;9.13;1.88;;;;;;;4.67;99.82;99330.81;5053909;28;20133;-48
2021/12/10 07:17:17;;;;;;;11.88;2.13;;;;;;;4.54;100.00;99342.97;5056812;28;20053;-51
2021/12/10 07:19:45;;;;;;;7.63;2.00;;;;;;;4.39;100.00;99349.94;5058032;28;20060;-51
2021/12/10 07:22:14;;;;;;;7.53;1.63;;;;;;;4.29;100.00;99352.22;5058032;28;20064;-51
2021/12/10 07:24:42;;;;;;;8.95;1.60;;;;;;;4.33;100.00;99353.72;5057722;28;20057;-51
2021/12/10 07:27:11;;;;;;;15.48;1.90;;;;;;;4.19;100.00;99370.22;5058181;28;20057;-51
2021/12/10 07:29:40;;;;;;;15.07;2.42;;;;;;;4.18;100.00;99365.06;5053344;28;20532;-51
2021/12/10 07:32:11;;;;;;;11.60;1.70;;;;;;;4.10;100.00;99362.84;5037891;28;20054;-51
2021/12/10 07:34:40;;;;;;;12.63;1.63;;;;;;;4.15;100.00;99357.34;5037512;28;20057;-48
2021/12/10 07:37:10;;;;;;;21.95;2.25;;;;;;;4.17;100.00;99358.09;5038023;28;20057;-51
2021/12/10 07:39:39;;;;;;;14.90;1.80;;;;;;;4.33;100.00;99372.09;5038560;28;20058;-49
2021/12/10 07:42:09;;;;;;;19.45;2.40;;;;;;;4.59;100.00;99364.56;5038608;28;20049;-52
2021/12/10 07:44:38;;;;;;;13.68;2.40;;;;;;;4.74;100.00;99374.25;5054052;28;20065;-53
2021/12/10 07:47:09;;;;;;;22.63;2.20;;;;;;;4.94;100.00;99391.50;5053633;28;20164;-53
2021/12/10 07:49:40;;;;;;;20.17;2.85;;;;;;;5.14;98.47;99389.50;5038183;28;20473;-52
2021/12/10 07:52:15;;;;;;;7.43;1.58;;;;;;;5.22;98.76;99387.28;5037906;28;20057;-53
2021/12/10 07:54:46;;;;;;;13.73;2.15;;;;;;;5.22;97.00;99377.59;5042992;28;20060;-53
2021/12/10 07:57:15;;;;;;;8.43;1.52;;;;;;;5.27;95.20;99397.53;5057065;28;20053;-52
2021/12/10 07:59:43;;;;;;;12.52;2.88;;;;;;;5.30;95.59;99431.56;5057506;28;20432;-53
2021/12/10 08:02:11;;;;;;;24.23;2.33;;;;;;;4.81;98.62;99438.63;5057742;28;20069;-51
2021/12/10 08:04:41;;;;;;;12.63;1.90;;;;;;;4.60;100.00;99451.16;5056858;28;20068;-53
2021/12/10 08:07:10;;;;;;;18.17;1.90;;;;;;;4.42;100.00;99466.16;5057385;28;20590;-49
2021/12/10 08:09:38;;;;;;;14.02;2.53;;;;;;;4.33;100.00;99481.53;5056876;28;20064;-50
2021/12/10 08:12:07;;;;;;;21.45;1.77;;;;;;;4.31;100.00;99483.41;5057078;28;20068;-53
2021/12/10 08:14:36;;;;;;;15.88;1.75;;;;;;;4.35;100.00;99498.03;5057448;28;20061;-53
2021/12/10 08:17:04;;;;;;;13.30;2.45;;;;;;;4.27;100.00;99487.97;5058123;28;20061;-53
2021/12/10 08:19:33;;;;;;;9.65;1.63;;;;;;;4.25;100.00;99455.66;5057200;28;20132;-53
2021/12/10 08:22:03;;;;;;;12.75;1.55;;;;;;;4.26;100.00;99458.22;5057494;28;20077;-53
2021/12/10 08:24:31;;;;;;;12.73;1.58;;;;;;;4.31;100.00;99457.97;5056792;28;20053;-52
2021/12/10 08:27:00;;;;;;;12.35;1.95;;;;;;;4.33;100.00;99458.75;5056971;28;20061;-53
2021/12/10 08:29:28;;;;;;;15.45;1.98;;;;;;;4.26;100.00;99468.72;5056993;28;20408;-51
2021/12/10 08:31:56;;;;;;;11.93;1.60;;;;;;;4.30;100.00;99479.91;5057031;28;20061;-53
2021/12/10 08:34:25;;;;;;;11.35;1.38;;;;;;;4.36;100.00;99474.34;5056458;28;20057;-53
2021/12/10 08:36:53;;;;;;;14.77;1.60;;;;;;;4.36;100.00;99463.00;5057240;28;20053;-53
2021/12/10 08:39:23;;;;;;;10.10;1.90;;;;;;;4.43;100.00;99483.56;5056577;28;20057;-53
2021/12/10 08:41:51;;;;;;;19.08;1.88;;;;;;;4.64;100.00;99475.50;5056855;28;20072;-51
2021/12/10 08:44:19;;;;;;;17.33;2.00;;;;;;;4.77;100.00;99481.75;5056143;28;20060;-53
2021/12/10 08:46:48;;;;;;;8.93;1.75;;;;;;;4.87;100.00;99483.91;5056405;28;20072;-53
2021/12/10 08:49:16;;;;;;;24.95;2.35;;;;;;;4.94;99.22;99486.13;5056722;28;20447;-53
2021/12/10 08:51:47;;;;;;;10.50;1.63;;;;;;;5.13;96.80;99491.19;5056396;28;20504;-53
2021/12/10 08:54:17;;;;;;;15.93;2.90;;;;;;;5.42;93.69;99491.34;5056373;28;20057;-53
2021/12/10 08:56:48;;;;;;;12.60;1.73;;;;;;;5.46;93.68;99511.25;5056182;28;20075;-53
2021/12/10 08:59:19;;;;;;;13.45;1.70;;;;;;;5.57;93.45;99510.66;5057108;28;20061;-53
2021/12/10 09:01:48;;;;;;;11.77;2.20;;;;;;;5.69;90.60;99509.09;5055978;28;20061;-53
2021/12/10 09:04:17;;;;;;;11.20;1.98;;;;;;;5.71;90.75;99521.22;5055777;28;20064;-53
2021/12/10 09:06:49;;;;;;;15.00;2.47;;;;;;;5.87;87.82;99518.56;5056094;28;20532;-53
2021/12/10 09:09:19;;;;;;;13.98;1.90;;;;;;;5.98;87.56;99538.19;5056595;28;20057;-53
2021/12/10 09:11:51;;;;;;;12.73;2.20;;;;;;;6.05;87.23;99536.88;5057166;28;20053;-53
2021/12/10 09:14:21;;;;;;;13.75;1.70;;;;;;;6.16;85.82;99547.63;5056449;28;20131;-53
2021/12/10 09:16:50;;;;;;;13.45;2.08;;;;;;;6.28;84.47;99553.94;5057023;28;20392;-53
2021/12/10 09:19:19;;;;;;;17.92;2.03;;;;;;;6.40;84.33;99560.28;5055836;28;20057;-53
2021/12/10 09:21:47;;;;;;;18.17;2.30;;;;;;;6.60;81.98;99553.81;5056256;28;20064;-52
2021/12/10 09:24:18;;;;;;;10.00;1.95;;;;;;;6.84;80.75;99561.97;5055420;28;20052;-53
2021/12/10 09:26:49;;;;;;;15.52;2.40;;;;;;;6.98;79.09;99554.09;5056348;28;20092;-53
2021/12/10 09:29:18;;;;;;;10.18;1.90;;;;;;;7.19;78.98;99562.41;5055977;28;20084;-50
2021/12/10 09:31:46;;;;;;;17.83;1.85;;;;;;;7.38;77.89;99567.41;5055596;28;20060;-51
2021/12/10 09:34:16;;;;;;;8.20;1.98;;;;;;;7.56;75.46;99570.63;5056726;28;20072;-51
2021/12/10 09:36:46;;;;;;;15.10;1.70;;;;;;;7.78;74.48;99578.03;5056661;28;20064;-51
2021/12/10 09:39:15;;;;;;;11.00;1.98;;;;;;;7.73;72.64;99579.25;5054615;28;20056;-51
2021/12/10 09:41:44;;;;;;;15.48;2.08;;;;;;;7.73;71.97;99582.75;5055750;28;20059;-51
2021/12/10 09:44:15;;;;;;;16.67;2.10;;;;;;;7.90;73.00;99594.84;5055022;28;20061;-51
2021/12/10 09:46:43;;;;;;;19.17;2.80;;;;;;;8.09;70.02;99605.03;5055136;28;20057;-49
2021/12/10 09:49:13;;;;;;;8.93;1.85;;;;;;;8.24;69.06;99615.53;5055593;28;20057;-49
2021/12/10 09:51:44;;;;;;;16.33;1.92;;;;;;;8.28;68.91;99611.75;5056049;28;20087;-50
2021/12/10 09:54:14;;;;;;;17.60;2.85;;;;;;;8.43;68.03;99616.03;5054946;28;20063;-51
2021/12/10 09:56:47;;;;;;;10.45;2.08;;;;;;;8.52;69.24;99618.06;5054903;28;20535;-50
2021/12/10 09:59:17;;;;;;;15.48;2.45;;;;;;;9.09;68.60;99626.53;5055150;28;20053;-51
2021/12/10 10:01:48;;;;;;;11.85;2.25;;;;;;;9.41;64.38;99642.75;5055336;28;20053;-51
2021/12/10 10:04:18;;;;;;;15.80;2.33;;;;;;;9.64;64.74;99651.72;5055862;28;20140;-51
2021/12/10 10:06:49;;;;;;;5.80;1.40;;;;;;;10.23;64.64;99644.81;5054662;28;20064;-50
2021/12/10 10:09:19;;;;;;;9.60;1.77;;;;;;;10.83;58.93;99656.25;5055826;28;20056;-52
2021/12/10 10:11:54;;;;;;;11.75;2.83;;;;;;;12.00;58.62;99654.16;5054549;28;20111;-50
2021/12/10 10:14:25;;;;;;;13.30;1.60;;;;;;;12.87;54.03;99656.66;5054567;28;20060;-51
2021/12/10 10:16:53;;;;;;;11.95;1.85;;;;;;;12.91;52.20;99663.44;5054506;28;20049;-49
2021/12/10 10:19:22;;;;;;;9.73;1.67;;;;;;;12.90;51.48;99656.41;5055019;28;20061;-52
2021/12/10 10:21:54;;;;;;;17.45;2.92;;;;;;;13.09;51.91;99649.50;5054900;28;20069;-49
2021/12/10 10:24:22;;;;;;;;;;;;;;;13.25;50.60;99654.38;5054761;28;20061;-50
2021/12/10 10:26:56;;;;;;;7.07;1.80;;;;;;;13.35;51.85;99656.13;5054880;28;19920;-49
2021/12/10 10:29:29;;;;;;;10.15;2.60;;;;;;;13.18;51.48;99659.38;5055236;28;20127;-51
2021/12/10 10:32:07;;;;;;;12.60;1.90;;;;;;;14.57;49.33;99668.38;5054610;28;20489;-50
2021/12/10 10:34:37;;;;;;;7.30;1.70;;;;;;;15.39;47.53;99667.81;5055095;28;20064;-51
2021/12/10 10:37:05;;;;;;;9.48;2.20;;;;;;;14.01;47.75;99670.75;5054816;28;20083;-49
2021/12/10 10:39:36;;;;;;;8.63;1.55;;;;;;;12.30;53.52;99676.56;5054524;28;20694;-51
2021/12/10 10:42:07;;;;;;;8.50;1.85;;;;;;;11.39;57.79;99687.31;5054948;28;20408;-51
2021/12/10 10:44:58;;;;;;;14.30;2.60;;;;;;;10.85;59.95;99683.50;5053997;28;20072;-51
2021/12/10 10:47:27;;;;;;;16.13;2.22;;;;;;;12.29;56.13;99682.84;5054599;28;20057;-52
2021/12/10 10:49:58;;;;;;;9.10;1.50;;;;;;;14.27;50.71;99691.56;5054047;28;20064;-49
2021/12/10 10:52:29;;;;;;;16.73;1.90;;;;;;;15.49;46.27;99682.97;5054738;28;20053;-49
2021/12/10 10:55:01;;;;;;;10.60;2.10;;;;;;;16.97;43.27;99674.63;5055028;28;20056;-52
2021/12/10 10:57:31;;;;;;;11.52;1.90;;;;;;;17.53;39.74;99679.66;5053851;28;20057;-51
2021/12/10 11:00:15;;;;;;;11.33;2.47;;;;;;;17.00;40.92;99687.72;5053857;28;20079;-50
2021/12/10 11:02:51;;;;;;;15.77;2.05;;;;;;;16.29;41.90;99676.06;5053821;28;20338;-51
2021/12/10 11:05:21;;;;;;;10.32;2.22;;;;;;;16.24;42.68;99691.75;5053738;28;20516;-50
2021/12/10 11:07:51;;;;;;;11.15;1.85;;;;;;;16.08;43.34;99688.88;5054267;28;20057;-51
2021/12/10 11:10:27;;;;;;;12.77;2.10;;;;;;;15.53;43.92;99690.56;5054637;28;20060;-50
2021/12/10 11:13:08;;;;;;;9.68;1.90;;;;;;;15.55;43.97;99703.75;5055184;28;20409;-50
2021/12/10 11:15:38;;;;;;;9.52;1.63;;;;;;;16.47;41.35;99699.31;5053658;28;20057;-49
2021/12/10 11:18:06;;;;;;;10.73;1.80;;;;;;;17.08;40.85;99695.81;5055055;28;20052;-50
2021/12/10 11:20:42;;;;;;;7.72;1.70;;;;;;;17.35;39.12;99691.31;5053888;28;20057;-50
2021/12/10 11:23:12;;;;;;;14.90;2.38;;;;;;;17.43;39.73;99707.44;5054140;28;20057;-49
2021/12/10 11:25:43;;;;;;;7.80;1.60;;;;;;;18.27;38.87;99704.91;5053776;28;20063;-49
2021/12/10 11:28:14;;;;;;;11.70;2.17;;;;;;;18.27;38.87;99704.91;5054342;28;20057;-49
2021/12/10 11:30:46;;;;;;;8.13;1.90;;;;;;;20.00;34.62;99713.63;5053555;28;20103;-50
2021/12/10 11:33:17;;;;;;;9.45;1.90;;;;;;;18.11;38.10;99716.44;5053789;28;20097;-52
2021/12/10 11:35:48;;;;;;;12.23;1.73;;;;;;;15.68;43.18;99711.44;5054403;28;20103;-50
2021/12/10 11:38:18;;;;;;;8.77;2.25;;;;;;;14.40;46.76;99721.47;5054576;28;20064;-51
2021/12/10 11:40:51;;;;;;;8.43;1.85;;;;;;;14.00;47.86;99721.53;5053725;28;20068;-50
2021/12/10 11:43:45;;;;;;;12.60;2.17;;;;;;;12.62;50.96;99727.06;5054529;28;20057;-49
2021/12/10 11:46:31;;;;;;;13.75;2.03;;;;;;;12.53;51.04;99730.50;5054177;28;20065;-49
2021/12/10 11:49:03;;;;;;;9.70;2.20;;;;;;;12.53;51.03;99742.00;5054427;28;20080;-52
2021/12/10 11:51:34;;;;;;;13.38;1.75;;;;;;;12.19;51.17;99733.28;5054475;28;20053;-50
2021/12/10 11:54:06;;;;;;;17.85;2.47;;;;;;;12.94;51.55;99751.00;5054120;28;20053;-51